createdAt,value
2023-01-28T00:01:17.980Z,102398.22
2023-01-28T00:03:44.460Z,102389.88
2023-01-28T00:06:15.217Z,102394.91
2023-01-28T00:08:42.081Z,102402.75
2023-01-28T00:11:11.331Z,102393.53
2023-01-28T00:13:38.205Z,102384.69
2023-01-28T00:16:08.640Z,102390.19
2023-01-28T00:18:36.062Z,102387.19
2023-01-28T00:21:07.125Z,102387.53
2023-01-28T00:23:36.327Z,102388.47
2023-01-28T00:26:05.807Z,102376.31
2023-01-28T00:28:32.451Z,102384.84
2023-01-28T00:30:59.041Z,102386.88
2023-01-28T00:33:29.313Z,102378.69
2023-01-28T00:36:00.270Z,102381.69
2023-01-28T00:38:28.724Z,102388.69
2023-01-28T00:40:55.473Z,102385.69
2023-01-28T00:43:23.165Z,102381.69
2023-01-28T00:45:50.417Z,102387.69
2023-01-28T00:48:17.020Z,102384.34
2023-01-28T00:50:45.553Z,102386.38
2023-01-28T00:53:12.057Z,102393.88
2023-01-28T00:55:39.016Z,102385.34
2023-01-28T00:58:05.567Z,102392.88
2023-01-28T01:00:32.006Z,102378.69
2023-01-28T01:02:58.428Z,102387.53
2023-01-28T01:05:24.844Z,102372.63
2023-01-28T01:07:51.421Z,102375.81
2023-01-28T01:10:20.200Z,102385.19
2023-01-28T01:12:47.803Z,102377.81
2023-01-28T01:15:15.907Z,102380.66
2023-01-28T01:17:46.243Z,102385.69
2023-01-28T01:20:19.875Z,102382.34
2023-01-28T01:22:46.439Z,102375.50
2023-01-28T01:25:15.405Z,102383.69
2023-01-28T01:27:43.200Z,102383.88
2023-01-28T01:30:10.741Z,102390.38
2023-01-28T01:32:38.544Z,102382.69
2023-01-28T01:35:07.310Z,102399.38
2023-01-28T01:37:35.428Z,102395.72
2023-01-28T01:40:04.627Z,102388.00
2023-01-28T01:42:32.909Z,102396.56
2023-01-28T01:45:07.738Z,102395.91
2023-01-28T01:48:01.030Z,102399.44
2023-01-28T01:50:27.353Z,102390.88
2023-01-28T01:52:59.646Z,102396.91
2023-01-28T01:55:30.691Z,102386.03
2023-01-28T01:58:02.540Z,102392.06
2023-01-28T02:00:28.981Z,102395.91
2023-01-28T02:02:56.862Z,102398.91
2023-01-28T02:05:23.476Z,102394.56
2023-01-28T02:07:55.206Z,102398.91
2023-01-28T02:10:23.149Z,102401.25
2023-01-28T02:12:56.121Z,102399.94
2023-01-28T02:15:27.088Z,102404.25
2023-01-28T02:17:53.643Z,102407.09
2023-01-28T02:20:32.199Z,102405.28
2023-01-28T02:23:27.508Z,102406.59
2023-01-28T02:26:15.696Z,102402.09
2023-01-28T02:29:02.907Z,102404.09
2023-01-28T02:32:23.655Z,102400.09
2023-01-28T02:35:00.951Z,102396.56
2023-01-28T02:38:04.148Z,102387.03
2023-01-28T02:40:54.831Z,102397.41
2023-01-28T02:43:40.410Z,102395.22
2023-01-28T02:46:53.400Z,102396.22
2023-01-28T02:49:31.141Z,102399.44
2023-01-28T02:52:42.005Z,102394.06
2023-01-28T02:55:29.361Z,102392.56
2023-01-28T02:58:17.562Z,102381.19
2023-01-28T03:01:08.743Z,102381.34
2023-01-28T03:03:50.328Z,102382.34
2023-01-28T03:06:22.230Z,102392.22
2023-01-28T03:09:12.586Z,102394.06
2023-01-28T03:12:05.884Z,102396.22
2023-01-28T03:14:54.309Z,102391.06
2023-01-28T03:17:45.060Z,102373.66
2023-01-28T03:20:31.777Z,102361.78
2023-01-28T03:23:22.037Z,102364.81
2023-01-28T03:26:12.756Z,102366.44
2023-01-28T03:28:58.796Z,102362.28
2023-01-28T03:31:44.771Z,102363.13
2023-01-28T03:34:32.476Z,102368.97
2023-01-28T03:36:59.745Z,102366.63
2023-01-28T03:39:45.736Z,102368.47
2023-01-28T03:42:14.758Z,102374.69
2023-01-28T03:45:01.819Z,102373.66
2023-01-28T03:47:30.951Z,102375.00
2023-01-28T03:50:01.930Z,102384.69
2023-01-28T03:52:33.241Z,102384.53
2023-01-28T03:55:16.377Z,102394.22
2023-01-28T03:57:44.957Z,102398.56
2023-01-28T04:00:13.072Z,102394.41
2023-01-28T04:02:42.179Z,102391.56
2023-01-28T04:05:12.981Z,102389.53
2023-01-28T04:07:44.962Z,102395.88
2023-01-28T04:10:19.783Z,102401.75
2023-01-28T04:12:54.482Z,102403.75
2023-01-28T04:15:24.197Z,102405.25
2023-01-28T04:17:50.845Z,102400.25
2023-01-28T04:20:25.609Z,102410.13
2023-01-28T04:22:52.124Z,102416.94
2023-01-28T04:25:21.343Z,102419.31
2023-01-28T04:27:48.264Z,102420.50
2023-01-28T04:30:19.014Z,102414.97
2023-01-28T04:32:55.986Z,102407.59
2023-01-28T04:35:41.781Z,102417.81
2023-01-28T04:38:20.700Z,102423.97
2023-01-28T04:41:13.354Z,102415.94
2023-01-28T04:43:39.767Z,102426.81
2023-01-28T04:46:27.183Z,102410.59
2023-01-28T04:49:09.531Z,102415.28
2023-01-28T04:51:42.076Z,102418.63
2023-01-28T04:54:26.976Z,102411.25
2023-01-28T04:56:57.159Z,102416.28
2023-01-28T04:59:24.402Z,102415.13
2023-01-28T05:01:51.734Z,102418.47
2023-01-28T05:04:19.326Z,102415.44
2023-01-28T05:06:46.467Z,102417.31
2023-01-28T05:09:23.878Z,102410.44
2023-01-28T05:11:51.625Z,102423.16
2023-01-28T05:14:18.236Z,102415.28
2023-01-28T05:16:50.419Z,102411.94
2023-01-28T05:19:18.041Z,102410.09
2023-01-28T05:21:46.423Z,102420.81
2023-01-28T05:24:31.249Z,102412.44
2023-01-28T05:26:57.855Z,102412.09
2023-01-28T05:29:24.504Z,102412.28
2023-01-28T05:31:50.970Z,102405.25
2023-01-28T05:34:17.515Z,102405.06
2023-01-28T05:36:44.538Z,102399.88
2023-01-28T05:39:27.106Z,102409.75
2023-01-28T05:41:53.620Z,102401.91
2023-01-28T05:44:20.186Z,102417.47
2023-01-28T05:46:58.654Z,102404.75
2023-01-28T05:49:44.398Z,102414.28
2023-01-28T05:52:30.791Z,102405.56
2023-01-28T05:54:57.535Z,102402.53
2023-01-28T05:57:25.385Z,102404.06
2023-01-28T05:59:52.005Z,102403.56
2023-01-28T06:02:19.720Z,102412.75
2023-01-28T06:04:46.502Z,102404.91
2023-01-28T06:07:13.375Z,102403.88
2023-01-28T06:09:42.640Z,102413.75
2023-01-28T06:12:09.821Z,102418.72
2023-01-28T06:14:49.656Z,102409.38
2023-01-28T06:17:43.911Z,102425.44
2023-01-28T06:20:22.638Z,102422.59
2023-01-28T06:22:52.016Z,102420.06
2023-01-28T06:25:19.694Z,102416.06
2023-01-28T06:27:47.147Z,102418.72
2023-01-28T06:30:14.084Z,102412.56
2023-01-28T06:32:40.805Z,102410.91
2023-01-28T06:35:08.099Z,102419.59
2023-01-28T06:37:34.653Z,102416.06
2023-01-28T06:40:01.077Z,102402.53
2023-01-28T06:42:30.972Z,102400.38
2023-01-28T06:44:57.360Z,102404.56
2023-01-28T06:47:23.835Z,102420.91
2023-01-28T06:49:50.406Z,102410.56
2023-01-28T06:52:16.822Z,102418.91
2023-01-28T06:54:44.130Z,102431.72
2023-01-28T06:57:11.034Z,102431.91
2023-01-28T06:59:37.507Z,102416.72
2023-01-28T07:02:03.924Z,102425.41
2023-01-28T07:04:31.783Z,102425.91
2023-01-28T07:06:58.340Z,102431.41
2023-01-28T07:09:24.711Z,102441.00
2023-01-28T07:11:51.242Z,102440.66
2023-01-28T07:14:17.866Z,102435.78
2023-01-28T07:16:44.278Z,102432.63
2023-01-28T07:19:10.967Z,102431.91
2023-01-28T07:21:37.535Z,102424.25
2023-01-28T07:24:05.293Z,102423.72
2023-01-28T07:26:32.047Z,102433.41
2023-01-28T07:28:58.534Z,102429.41
2023-01-28T07:31:24.987Z,102433.25
2023-01-28T07:33:51.699Z,102430.06
2023-01-28T07:36:18.100Z,102425.91
2023-01-28T07:38:44.592Z,102429.06
2023-01-28T07:41:11.252Z,102433.31
2023-01-28T07:43:37.664Z,102435.97
2023-01-28T07:46:04.901Z,102438.13
2023-01-28T07:48:31.424Z,102429.44
2023-01-28T07:51:03.299Z,102431.09
2023-01-28T07:53:29.716Z,102438.13
2023-01-28T07:56:01.215Z,102434.28
2023-01-28T07:58:27.706Z,102432.44
2023-01-28T08:00:59.039Z,102443.28
2023-01-28T08:03:26.851Z,102455.69
2023-01-28T08:05:55.447Z,102464.22
2023-01-28T08:08:23.441Z,102472.25
2023-01-28T08:10:50.690Z,102455.84
2023-01-28T08:13:18.526Z,102464.38
2023-01-28T08:15:46.108Z,102473.56
2023-01-28T08:18:14.249Z,102465.06
2023-01-28T08:20:41.427Z,102465.75
2023-01-28T08:23:19.251Z,102478.94
2023-01-28T08:25:46.246Z,102476.09
2023-01-28T08:28:13.697Z,102480.03
2023-01-28T08:30:40.535Z,102480.22
2023-01-28T08:33:08.577Z,102487.50
2023-01-28T08:35:35.746Z,102497.03
2023-01-28T08:38:03.477Z,102491.50
2023-01-28T08:40:30.108Z,102500.38
2023-01-28T08:42:57.116Z,102500.03
2023-01-28T08:45:28.054Z,102504.88
2023-01-28T08:47:59.922Z,102502.41
2023-01-28T08:50:32.411Z,102515.75
2023-01-28T08:53:01.551Z,102520.66
2023-01-28T08:55:30.108Z,102518.97
2023-01-28T08:57:58.533Z,102526.81
2023-01-28T09:00:25.380Z,102524.13
2023-01-28T09:02:53.064Z,102524.31
2023-01-28T09:05:21.005Z,102536.38
2023-01-28T09:07:47.923Z,102538.22
2023-01-28T09:10:16.528Z,102544.19
2023-01-28T09:12:43.914Z,102544.34
2023-01-28T09:15:10.906Z,102543.00
2023-01-28T09:17:37.559Z,102545.72
2023-01-28T09:20:05.039Z,102554.72
2023-01-28T09:22:32.745Z,102548.19
2023-01-28T09:24:59.162Z,102563.38
2023-01-28T09:27:25.609Z,102567.75
2023-01-28T09:29:52.078Z,102566.03
2023-01-28T09:32:18.556Z,102565.41
2023-01-28T09:34:44.962Z,102558.72
2023-01-28T09:37:12.016Z,102561.22
2023-01-28T09:39:38.811Z,102569.25
2023-01-28T09:42:17.084Z,102571.44
2023-01-28T09:44:59.337Z,102574.78
2023-01-28T09:47:35.289Z,102582.50
2023-01-28T09:50:06.785Z,102582.34
2023-01-28T09:52:37.309Z,102575.78
2023-01-28T09:55:16.977Z,102571.94
2023-01-28T09:58:01.892Z,102570.41
2023-01-28T10:00:54.984Z,102568.41
2023-01-28T10:03:37.669Z,102563.91
2023-01-28T10:06:26.323Z,102568.00
2023-01-28T10:09:14.389Z,102557.81
2023-01-28T10:11:56.490Z,102563.34
2023-01-28T10:14:36.283Z,102554.78
2023-01-28T10:17:12.233Z,102552.75
2023-01-28T10:19:47.044Z,102553.97
2023-01-28T10:22:25.626Z,102550.47
2023-01-28T10:24:58.349Z,102561.34
2023-01-28T10:27:29.711Z,102554.84
2023-01-28T10:29:58.675Z,102564.84
2023-01-28T10:32:37.020Z,102568.53
2023-01-28T10:35:04.400Z,102591.28
2023-01-28T10:37:34.701Z,102578.59
2023-01-28T10:40:03.104Z,102569.88
2023-01-28T10:42:32.192Z,102571.22
2023-01-28T10:45:22.917Z,102582.41
2023-01-28T10:48:03.353Z,102588.09
2023-01-28T10:50:31.285Z,102570.38
2023-01-28T10:53:02.294Z,102566.66
2023-01-28T10:55:45.870Z,102568.03
2023-01-28T10:58:22.026Z,102569.31
2023-01-28T11:00:54.687Z,102561.97
2023-01-28T11:03:23.163Z,102551.44
2023-01-28T11:05:52.334Z,102560.53
2023-01-28T11:08:19.845Z,102553.50
2023-01-28T11:10:47.591Z,102558.03
2023-01-28T11:13:20.421Z,102553.97
2023-01-28T11:15:58.118Z,102555.84
2023-01-28T11:18:28.402Z,102545.97
2023-01-28T11:21:01.008Z,102537.44
2023-01-28T11:23:31.433Z,102537.78
2023-01-28T11:26:05.755Z,102531.91
2023-01-28T11:28:32.881Z,102528.09
2023-01-28T11:31:03.313Z,102526.25
2023-01-28T11:33:44.335Z,102527.84
2023-01-28T11:36:16.652Z,102523.50
2023-01-28T11:39:00.346Z,102509.31
2023-01-28T11:41:34.135Z,102517.22
2023-01-28T11:44:14.929Z,102518.03
2023-01-28T11:46:58.407Z,102510.16
2023-01-28T11:49:35.848Z,102503.81
2023-01-28T11:52:11.126Z,102501.13
2023-01-28T11:55:22.275Z,102491.94
2023-01-28T11:58:03.459Z,102494.28
2023-01-28T12:00:48.465Z,102501.66
2023-01-28T12:03:43.062Z,102477.38
2023-01-28T12:06:23.893Z,102472.53
2023-01-28T12:09:12.192Z,102464.47
2023-01-28T12:12:12.117Z,102460.28
2023-01-28T12:14:57.942Z,102444.38
2023-01-28T12:17:42.718Z,102426.44
2023-01-28T12:20:28.157Z,102417.72
2023-01-28T12:22:58.395Z,102406.16
2023-01-28T12:25:36.984Z,102407.69
2023-01-28T12:28:30.401Z,102407.28
2023-01-28T12:31:17.992Z,102391.56
2023-01-28T12:34:03.736Z,102372.53
2023-01-28T12:36:51.950Z,102371.56
2023-01-28T12:39:42.022Z,102375.88
2023-01-28T12:42:23.224Z,102381.16
2023-01-28T12:44:56.516Z,102384.13
2023-01-28T12:47:31.472Z,102388.34
2023-01-28T12:50:03.863Z,102401.50
2023-01-28T12:52:35.256Z,102396.69
2023-01-28T12:55:11.887Z,102384.41
2023-01-28T12:57:38.713Z,102367.91
2023-01-28T13:00:28.063Z,102372.31
2023-01-28T13:03:19.344Z,102389.81
2023-01-28T13:05:50.897Z,102395.72
2023-01-28T13:08:23.915Z,102394.53
2023-01-28T13:10:52.441Z,102393.16
2023-01-28T13:13:34.524Z,102401.38
2023-01-28T13:16:02.689Z,102402.19
2023-01-28T13:18:44.398Z,102411.72
2023-01-28T13:21:23.790Z,102416.00
2023-01-28T13:24:03.058Z,102420.53
2023-01-28T13:26:51.246Z,102411.47
2023-01-28T13:29:24.904Z,102420.81
2023-01-28T13:31:56.964Z,102429.69
2023-01-28T13:34:44.164Z,102433.34
2023-01-28T13:37:37.696Z,102429.81
2023-01-28T13:40:23.675Z,102437.22
2023-01-28T13:43:05.156Z,102437.56
2023-01-28T13:45:33.407Z,102438.88
2023-01-28T13:47:59.827Z,102440.03
2023-01-28T13:50:37.217Z,102423.97
2023-01-28T13:53:25.327Z,102410.66
2023-01-28T13:55:57.437Z,102409.69
2023-01-28T13:58:42.564Z,102387.56
2023-01-28T14:01:29.131Z,102390.25
2023-01-28T14:04:04.542Z,102378.75
2023-01-28T14:06:56.091Z,102366.03
2023-01-28T14:09:48.749Z,102359.66
2023-01-28T14:12:42.814Z,102356.50
2023-01-28T14:15:13.309Z,102362.63
2023-01-28T14:17:48.327Z,102368.75
2023-01-28T14:20:22.565Z,102371.88
2023-01-28T14:22:50.757Z,102370.69
2023-01-28T14:25:32.969Z,102376.53
2023-01-28T14:28:02.669Z,102368.19
2023-01-28T14:30:50.781Z,102385.81
2023-01-28T14:33:17.764Z,102387.66
2023-01-28T14:35:47.130Z,102386.66
2023-01-28T14:38:20.885Z,102379.28
2023-01-28T14:40:53.427Z,102384.47
2023-01-28T14:43:24.976Z,102384.47
2023-01-28T14:46:05.188Z,102387.94
2023-01-28T14:48:46.578Z,102393.78
2023-01-28T14:51:46.844Z,102398.97
2023-01-28T14:54:28.195Z,102413.34
2023-01-28T14:57:10.143Z,102413.69
2023-01-28T14:59:44.825Z,102408.50
2023-01-28T15:02:44.854Z,102412.56
2023-01-28T15:05:26.462Z,102425.97
2023-01-28T15:07:53.741Z,102421.91
2023-01-28T15:10:53.269Z,102431.97
2023-01-28T15:13:29.305Z,102424.44
2023-01-28T15:16:00.509Z,102440.72
2023-01-28T15:18:35.365Z,102432.16
2023-01-28T15:21:02.705Z,102423.16
2023-01-28T15:23:36.225Z,102423.47
2023-01-28T15:26:25.504Z,102414.78
2023-01-28T15:28:54.164Z,102418.50
2023-01-28T15:31:22.375Z,102412.13
2023-01-28T15:34:18.689Z,102417.97
2023-01-28T15:36:47.638Z,102425.19
2023-01-28T15:39:16.681Z,102422.00
2023-01-28T15:41:49.924Z,102423.34
2023-01-28T15:44:29.260Z,102422.16
2023-01-28T15:46:58.086Z,102426.69
2023-01-28T15:49:31.187Z,102422.00
2023-01-28T15:51:57.843Z,102430.19
2023-01-28T15:54:25.756Z,102444.75
2023-01-28T15:56:52.580Z,102453.09
2023-01-28T15:59:26.729Z,102463.63
2023-01-28T16:02:19.849Z,102447.72
2023-01-28T16:05:00.329Z,102447.72
2023-01-28T16:07:30.960Z,102453.22
2023-01-28T16:09:59.531Z,102449.56
2023-01-28T16:12:26.933Z,102452.91
2023-01-28T16:15:04.052Z,102473.13
2023-01-28T16:17:37.455Z,102469.75
2023-01-28T16:20:08.112Z,102459.41
2023-01-28T16:22:38.035Z,102468.09
2023-01-28T16:25:21.124Z,102468.41
2023-01-28T16:27:47.783Z,102459.41
2023-01-28T16:30:15.323Z,102450.69
2023-01-28T16:32:44.693Z,102439.31
2023-01-28T16:35:20.294Z,102436.97
2023-01-28T16:37:48.505Z,102405.38
2023-01-28T16:40:23.455Z,102406.06
2023-01-28T16:42:53.468Z,102410.38
2023-01-28T16:45:25.025Z,102418.75
2023-01-28T16:47:52.607Z,102425.44
2023-01-28T16:50:21.896Z,102432.28
2023-01-28T16:52:51.238Z,102424.09
2023-01-28T16:55:20.148Z,102425.22
2023-01-28T16:57:48.811Z,102430.22
2023-01-28T17:00:26.930Z,102431.22
2023-01-28T17:02:54.607Z,102437.75
2023-01-28T17:05:23.275Z,102435.06
2023-01-28T17:07:50.070Z,102433.03
2023-01-28T17:10:17.421Z,102437.56
2023-01-28T17:12:44.682Z,102441.88
2023-01-28T17:15:11.575Z,102436.53
2023-01-28T17:17:37.998Z,102426.69
2023-01-28T17:20:06.120Z,102433.34
2023-01-28T17:22:32.536Z,102445.88
2023-01-28T17:24:58.978Z,102448.56
2023-01-28T17:27:25.424Z,102443.69
2023-01-28T17:29:53.416Z,102444.72
2023-01-28T17:32:19.930Z,102443.19
2023-01-28T17:34:47.829Z,102438.66
2023-01-28T17:37:14.314Z,102458.53
2023-01-28T17:39:41.716Z,102448.63
2023-01-28T17:42:08.188Z,102456.81
2023-01-28T17:44:34.611Z,102450.31
2023-01-28T17:47:01.067Z,102447.66
2023-01-28T17:49:27.698Z,102446.13
2023-01-28T17:51:54.119Z,102435.22
2023-01-28T17:54:23.456Z,102447.09
2023-01-28T17:56:50.014Z,102443.19
2023-01-28T17:59:17.536Z,102456.88
2023-01-28T18:01:44.801Z,102456.19
2023-01-28T18:04:12.985Z,102461.34
2023-01-28T18:06:39.447Z,102470.16
2023-01-28T18:09:06.988Z,102474.63
2023-01-28T18:11:33.591Z,102473.81
2023-01-28T18:14:00.050Z,102482.63
2023-01-28T18:16:26.625Z,102490.13
2023-01-28T18:18:53.224Z,102483.59
2023-01-28T18:21:39.935Z,102471.91
2023-01-28T18:24:17.303Z,102472.38
2023-01-28T18:26:43.854Z,102473.06
2023-01-28T18:29:16.367Z,102470.34
2023-01-28T18:31:42.837Z,102469.00
2023-01-28T18:34:09.515Z,102466.56
2023-01-28T18:36:35.891Z,102465.88
2023-01-28T18:39:02.320Z,102470.91
2023-01-28T18:41:29.095Z,102484.25
2023-01-28T18:43:55.509Z,102488.88
2023-01-28T18:46:21.900Z,102478.25
2023-01-28T18:48:48.328Z,102488.72
2023-01-28T18:51:28.934Z,102489.25
2023-01-28T18:54:02.075Z,102499.47
2023-01-28T18:56:29.747Z,102492.66
2023-01-28T18:59:01.139Z,102487.47
2023-01-28T19:01:28.833Z,102480.78
2023-01-28T19:03:56.932Z,102486.34
2023-01-28T19:06:24.841Z,102492.59
2023-01-28T19:08:54.010Z,102501.91
2023-01-28T19:11:21.823Z,102498.22
2023-01-28T19:13:48.241Z,102506.16
2023-01-28T19:16:14.980Z,102501.41
2023-01-28T19:18:41.447Z,102491.28
2023-01-28T19:21:07.899Z,102497.63
2023-01-28T19:23:48.878Z,102502.66
2023-01-28T19:26:21.210Z,102499.69
2023-01-28T19:28:51.712Z,102495.41
2023-01-28T19:31:23.259Z,102490.06
2023-01-28T19:33:54.525Z,102491.06
2023-01-28T19:36:21.925Z,102490.38
2023-01-28T19:38:48.373Z,102485.81
2023-01-28T19:41:16.948Z,102473.22
2023-01-28T19:43:44.144Z,102468.66
2023-01-28T19:46:14.041Z,102463.00
2023-01-28T19:48:40.510Z,102459.88
2023-01-28T19:51:08.502Z,102454.66
2023-01-28T19:53:36.544Z,102456.00
2023-01-28T19:56:04.786Z,102456.66
2023-01-28T19:58:39.220Z,102448.84
2023-01-28T20:01:09.697Z,102445.19
2023-01-28T20:03:36.851Z,102448.13
2023-01-28T20:06:05.812Z,102451.53
2023-01-28T20:08:32.392Z,102456.41
2023-01-28T20:11:07.060Z,102455.78
2023-01-28T20:13:34.334Z,102452.22
2023-01-28T20:16:08.360Z,102453.63
2023-01-28T20:18:35.527Z,102452.34
2023-01-28T20:21:04.918Z,102453.06
2023-01-28T20:23:31.601Z,102448.53
2023-01-28T20:26:01.242Z,102446.22
2023-01-28T20:28:28.192Z,102450.06
2023-01-28T20:30:55.519Z,102451.06
2023-01-28T20:33:22.724Z,102458.59
2023-01-28T20:35:49.175Z,102452.53
2023-01-28T20:38:15.630Z,102450.84
2023-01-28T20:40:46.022Z,102452.13
2023-01-28T20:43:12.661Z,102448.91
2023-01-28T20:45:39.052Z,102453.25
2023-01-28T20:48:06.374Z,102451.63
2023-01-28T20:50:34.340Z,102455.72
2023-01-28T20:53:00.771Z,102455.97
2023-01-28T20:55:28.557Z,102458.28
2023-01-28T20:57:55.197Z,102444.13
2023-01-28T21:00:22.227Z,102449.09
2023-01-28T21:02:48.789Z,102449.81
2023-01-28T21:05:15.303Z,102445.50
2023-01-28T21:07:41.710Z,102446.03
2023-01-28T21:10:08.843Z,102439.16
2023-01-28T21:12:35.353Z,102431.31
2023-01-28T21:15:02.659Z,102431.63
2023-01-28T21:17:31.581Z,102432.97
2023-01-28T21:19:58.628Z,102419.63
2023-01-28T21:22:25.291Z,102420.97
2023-01-28T21:24:51.711Z,102413.78
2023-01-28T21:27:18.118Z,102412.13
2023-01-28T21:29:44.559Z,102408.97
2023-01-28T21:32:11.331Z,102419.47
2023-01-28T21:34:38.048Z,102422.22
2023-01-28T21:37:04.464Z,102415.19
2023-01-28T21:39:30.940Z,102407.50
2023-01-28T21:41:57.354Z,102408.03
2023-01-28T21:44:23.934Z,102406.16
2023-01-28T21:46:50.445Z,102409.88
2023-01-28T21:49:16.875Z,102405.19
2023-01-28T21:51:46.300Z,102415.03
2023-01-28T21:54:14.415Z,102425.94
2023-01-28T21:56:45.109Z,102424.09
2023-01-28T21:59:28.030Z,102416.53
2023-01-28T22:01:55.461Z,102414.22
2023-01-28T22:04:21.975Z,102424.28
2023-01-28T22:06:49.242Z,102421.56
2023-01-28T22:09:15.749Z,102414.19
2023-01-28T22:11:43.868Z,102414.72
2023-01-28T22:14:11.335Z,102403.22
2023-01-28T22:16:37.990Z,102406.06
2023-01-28T22:19:04.855Z,102407.00
2023-01-28T22:21:31.375Z,102403.72
2023-01-28T22:23:58.158Z,102407.03
2023-01-28T22:26:24.627Z,102406.84
2023-01-28T22:28:51.341Z,102400.38
2023-01-28T22:31:17.937Z,102401.84
2023-01-28T22:33:45.722Z,102401.34
2023-01-28T22:36:15.026Z,102409.88
2023-01-28T22:38:43.867Z,102403.19
2023-01-28T22:41:13.524Z,102397.19
2023-01-28T22:43:41.750Z,102398.19
2023-01-28T22:46:09.683Z,102393.16
2023-01-28T22:48:37.666Z,102387.31
2023-01-28T22:51:10.574Z,102389.50
2023-01-28T22:53:37.048Z,102387.19
2023-01-28T22:56:03.701Z,102388.84
2023-01-28T22:58:31.578Z,102391.50
2023-01-28T23:00:58.461Z,102388.50
2023-01-28T23:03:24.980Z,102382.31
2023-01-28T23:05:51.792Z,102397.50
2023-01-28T23:08:43.953Z,102395.72
2023-01-28T23:11:14.891Z,102396.03
2023-01-28T23:14:01.519Z,102389.50
2023-01-28T23:16:50.165Z,102388.81
2023-01-28T23:19:35.719Z,102387.66
2023-01-28T23:22:21.686Z,102385.31
2023-01-28T23:24:48.121Z,102375.59
2023-01-28T23:27:14.571Z,102372.44
2023-01-28T23:29:41.695Z,102374.09
2023-01-28T23:32:09.844Z,102374.25
2023-01-28T23:34:38.667Z,102366.56
2023-01-28T23:37:09.500Z,102370.25
2023-01-28T23:39:36.305Z,102374.94
2023-01-28T23:42:15.290Z,102366.13
2023-01-28T23:44:42.069Z,102368.78
2023-01-28T23:47:08.938Z,102365.09
2023-01-28T23:49:35.663Z,102369.09
2023-01-28T23:52:03.922Z,102370.25
2023-01-28T23:54:30.785Z,102371.28
2023-01-28T23:56:57.431Z,102363.94
2023-01-28T23:59:24.699Z,102359.72
